Time,TemperatureF,DewpointF,PressureIn,WindDirection,WindDirectionDegrees,WindSpeedMPH,WindSpeedGustMPH,Humidity,HourlyPrecipIn,Conditions,Clouds,dailyrainin,SoftwareType,DateUTC
2013-02-22 00:00:00,55.7,27.7,29.86,NE,38,0.0,0.0,34,0.00,,,0.00,Wunderground v.1.15,2013-02-22 06:00:00,
2013-02-22 00:10:00,55.6,27.6,29.87,NE,38,0.0,0.0,34,0.00,,,0.00,Wunderground v.1.15,2013-02-22 06:10:00,
2013-02-22 00:19:00,55.1,27.9,29.87,NE,38,0.0,0.0,35,0.00,,,0.00,Wunderground v.1.15,2013-02-22 06:19:00,
2013-02-22 00:25:00,54.9,29.7,29.88,NE,39,0.0,0.0,38,0.00,,,0.00,Wunderground v.1.15,2013-02-22 06:25:00,
2013-02-22 00:34:00,54.6,30.1,29.88,NE,38,0.0,0.0,39,0.00,,,0.00,Wunderground v.1.15,2013-02-22 06:34:00,
2013-02-22 00:45:00,54.8,29.0,29.89,NE,39,0.0,0.0,37,0.00,,,0.00,Wunderground v.1.15,2013-02-22 06:45:00,
2013-02-22 00:54:00,55.5,27.6,29.89,NE,39,0.0,0.0,34,0.00,,,0.00,Wunderground v.1.15,2013-02-22 06:54:00,
2013-02-22 01:00:00,55.6,26.9,29.89,NE,38,0.0,0.0,33,0.00,,,0.00,Wunderground v.1.15,2013-02-22 07:00:00,
2013-02-22 01:09:00,55.2,28.0,29.90,NE,39,0.0,0.0,35,0.00,,,0.00,Wunderground v.1.15,2013-02-22 07:09:00,
2013-02-22 01:15:00,54.4,28.6,29.90,NE,39,0.0,0.0,37,0.00,,,0.00,Wunderground v.1.15,2013-02-22 07:15:00,
2013-02-22 01:24:00,52.9,29.2,29.90,NE,38,0.0,0.0,40,0.00,,,0.00,Wunderground v.1.15,2013-02-22 07:24:00,
2013-02-22 01:35:00,51.5,30.3,29.91,NE,38,0.0,0.0,44,0.00,,,0.00,Wunderground v.1.15,2013-02-22 07:35:00,
2013-02-22 01:45:00,50.3,30.8,29.90,NE,39,0.0,0.0,47,0.00,,,0.00,Wunderground v.1.15,2013-02-22 07:45:00,
2013-02-22 01:54:00,49.9,29.4,29.90,NE,39,0.0,0.0,45,0.00,,,0.00,Wunderground v.1.15,2013-02-22 07:54:00,
2013-02-22 02:05:00,50.2,29.1,29.91,NE,38,0.0,0.0,44,0.00,,,0.00,Wunderground v.1.15,2013-02-22 08:05:00,
2013-02-22 02:14:00,50.1,29.0,29.90,NE,39,0.0,0.0,44,0.00,,,0.00,Wunderground v.1.15,2013-02-22 08:14:00,
2013-02-22 02:25:00,50.2,29.1,29.89,NE,38,0.0,0.0,44,0.00,,,0.00,Wunderground v.1.15,2013-02-22 08:25:00,
2013-02-22 02:35:00,50.2,29.7,29.89,NE,39,0.0,0.0,45,0.00,,,0.00,Wunderground v.1.15,2013-02-22 08:35:00,
2013-02-22 02:44:00,50.0,28.9,29.89,NE,39,0.0,0.0,44,0.00,,,0.00,Wunderground v.1.15,2013-02-22 08:44:00,
2013-02-22 02:55:00,50.6,29.5,29.90,NE,39,0.0,0.0,44,0.00,,,0.00,Wunderground v.1.15,2013-02-22 08:55:00,
2013-02-22 03:04:00,50.8,29.6,29.89,NE,39,0.0,0.0,44,0.00,,,0.00,Wunderground v.1.15,2013-02-22 09:04:00,
2013-02-22 03:10:00,51.0,29.8,29.90,NE,39,0.0,0.0,44,0.00,,,0.00,Wunderground v.1.15,2013-02-22 09:10:00,
2013-02-22 03:19:00,51.4,30.2,29.90,NE,39,0.0,0.0,44,0.00,,,0.00,Wunderground v.1.15,2013-02-22 09:19:00,
2013-02-22 03:30:00,51.6,29.8,29.90,NE,39,0.0,0.0,43,0.00,,,0.00,Wunderground v.1.15,2013-02-22 09:30:00,
2013-02-22 03:39:00,51.9,30.1,29.90,NE,39,0.0,0.0,43,0.00,,,0.00,Wunderground v.1.15,2013-02-22 09:39:00,
2013-02-22 03:45:00,52.0,30.2,29.91,NE,39,0.0,0.0,43,0.00,,,0.00,Wunderground v.1.15,2013-02-22 09:45:00,
2013-02-22 03:54:00,52.0,30.2,29.91,NE,38,0.0,0.0,43,0.00,,,0.00,Wunderground v.1.15,2013-02-22 09:54:00,
2013-02-22 04:05:00,52.0,29.6,29.92,NE,38,0.0,0.0,42,0.00,,,0.00,Wunderground v.1.15,2013-02-22 10:05:00,
2013-02-22 04:14:00,51.9,30.1,29.92,NE,39,0.0,0.0,43,0.00,,,0.00,Wunderground v.1.15,2013-02-22 10:14:00,
2013-02-22 04:20:00,52.0,30.2,29.92,NE,39,0.0,0.0,43,0.00,,,0.00,Wunderground v.1.15,2013-02-22 10:20:00,
2013-02-22 04:29:00,52.1,29.7,29.92,NE,38,0.0,0.0,42,0.00,,,0.00,Wunderground v.1.15,2013-02-22 10:29:00,
2013-02-22 04:35:00,52.3,29.9,29.93,NE,38,0.0,0.0,42,0.00,,,0.00,Wunderground v.1.15,2013-02-22 10:35:00,
2013-02-22 04:44:00,53.2,29.5,29.93,NE,48,1.0,2.0,40,0.00,,,0.00,Wunderground v.1.15,2013-02-22 10:44:00,
2013-02-22 04:50:00,53.5,30.4,29.93,East,87,2.0,2.0,41,0.00,,,0.00,Wunderground v.1.15,2013-02-22 10:50:00,
2013-02-22 04:59:00,53.2,30.7,29.94,NE,53,1.0,2.0,42,0.00,,,0.00,Wunderground v.1.15,2013-02-22 10:59:00,
2013-02-22 05:10:00,52.6,31.8,29.94,NE,40,2.0,2.0,45,0.00,,,0.00,Wunderground v.1.15,2013-02-22 11:10:00,
2013-02-22 05:19:00,52.3,32.6,29.94,NE,53,2.0,4.0,47,0.00,,,0.00,Wunderground v.1.15,2013-02-22 11:19:00,
2013-02-22 05:25:00,52.4,33.3,29.95,ENE,72,3.0,4.0,48,0.00,,,0.00,Wunderground v.1.15,2013-02-22 11:25:00,
2013-02-22 05:34:00,52.6,34.5,29.95,NE,56,3.0,3.0,50,0.00,,,0.00,Wunderground v.1.15,2013-02-22 11:34:00,
2013-02-22 05:40:00,52.6,35.0,29.95,NE,47,3.0,3.0,51,0.00,,,0.00,Wunderground v.1.15,2013-02-22 11:40:00,
2013-02-22 05:49:00,52.5,36.3,29.95,NE,34,3.0,3.0,54,0.00,,,0.00,Wunderground v.1.15,2013-02-22 11:49:00,
2013-02-22 06:00:00,52.1,37.3,29.96,NNE,14,3.0,3.0,57,0.00,,,0.00,Wunderground v.1.15,2013-02-22 12:00:00,
2013-02-22 06:09:00,51.8,37.5,29.96,NNE,25,2.0,2.0,58,0.00,,,0.00,Wunderground v.1.15,2013-02-22 12:09:00,
2013-02-22 06:20:00,51.3,38.3,29.96,ESE,108,4.0,4.0,61,0.00,,,0.00,Wunderground v.1.15,2013-02-22 12:20:00,
2013-02-22 06:29:00,50.9,39.1,29.96,NNW,343,3.0,3.0,64,0.00,,,0.00,Wunderground v.1.15,2013-02-22 12:29:00,
2013-02-22 06:35:00,50.8,39.5,29.96,ENE,70,3.0,3.0,65,0.00,,,0.00,Wunderground v.1.15,2013-02-22 12:35:00,
2013-02-22 06:44:00,50.5,39.6,29.97,NNE,29,3.0,4.0,66,0.00,,,0.00,Wunderground v.1.15,2013-02-22 12:44:00,
2013-02-22 06:50:00,50.4,39.9,29.97,ENE,64,4.0,6.0,67,0.00,,,0.00,Wunderground v.1.15,2013-02-22 12:50:00,
2013-02-22 06:59:00,50.0,39.5,29.97,NE,47,4.0,4.0,67,0.00,,,0.00,Wunderground v.1.15,2013-02-22 12:59:00,
2013-02-22 07:10:00,49.6,39.5,29.97,NE,47,4.0,6.0,68,0.00,,,0.00,Wunderground v.1.15,2013-02-22 13:10:00,
2013-02-22 07:19:00,49.2,39.8,29.97,NNE,13,4.0,6.0,70,0.00,,,0.00,Wunderground v.1.15,2013-02-22 13:19:00,
2013-02-22 07:25:00,49.0,40.0,29.97,WNW,297,4.0,6.0,71,0.00,,,0.00,Wunderground v.1.15,2013-02-22 13:25:00,
2013-02-22 07:34:00,48.8,39.8,29.98,ENE,59,4.0,5.0,71,0.00,,,0.00,Wunderground v.1.15,2013-02-22 13:34:00,
2013-02-22 07:40:00,48.8,39.8,29.98,NE,37,4.0,4.0,71,0.00,,,0.00,Wunderground v.1.15,2013-02-22 13:40:00,
2013-02-22 07:50:00,48.7,39.7,29.98,ESE,103,4.0,6.0,71,0.00,,,0.00,Wunderground v.1.15,2013-02-22 13:50:00,
2013-02-22 07:59:00,48.8,39.8,29.99,NNE,15,4.0,4.0,71,0.00,,,0.00,Wunderground v.1.15,2013-02-22 13:59:00,
2013-02-22 08:10:00,49.1,39.7,29.99,NE,56,3.0,3.0,70,0.00,,,0.00,Wunderground v.1.15,2013-02-22 14:10:00,
2013-02-22 08:19:00,49.6,40.2,29.99,NNW,329,3.0,4.0,70,0.00,,,0.00,Wunderground v.1.15,2013-02-22 14:19:00,
2013-02-22 08:25:00,49.8,40.0,29.99,NE,56,3.0,4.0,69,0.00,,,0.00,Wunderground v.1.15,2013-02-22 14:25:00,
2013-02-22 08:34:00,49.5,40.1,30.00,NNE,20,4.0,4.0,70,0.00,,,0.00,Wunderground v.1.15,2013-02-22 14:34:00,
2013-02-22 08:40:00,49.4,40.4,30.01,East,79,4.0,4.0,71,0.00,,,0.00,Wunderground v.1.15,2013-02-22 14:40:00,
2013-02-22 08:49:00,49.7,40.3,30.01,NE,46,3.0,3.0,70,0.00,,,0.00,Wunderground v.1.15,2013-02-22 14:49:00,
2013-02-22 09:00:00,50.2,40.4,30.02,NNW,338,3.0,4.0,69,0.00,,,0.00,Wunderground v.1.15,2013-02-22 15:00:00,
2013-02-22 09:09:00,50.3,40.5,30.02,NE,37,3.0,3.0,69,0.00,,,0.00,Wunderground v.1.15,2013-02-22 15:09:00,
2013-02-22 09:15:00,50.4,40.6,30.03,NNW,330,3.0,3.0,69,0.00,,,0.00,Wunderground v.1.15,2013-02-22 15:15:00,
2013-02-22 09:24:00,50.7,40.5,30.03,NE,53,3.0,3.0,68,0.00,,,0.00,Wunderground v.1.15,2013-02-22 15:24:00,
2013-02-22 09:30:00,50.7,40.5,30.03,ENE,63,3.0,5.0,68,0.00,,,0.00,Wunderground v.1.15,2013-02-22 15:30:00,
2013-02-22 09:39:00,51.0,41.2,30.04,East,79,3.0,3.0,69,0.00,,,0.00,Wunderground v.1.15,2013-02-22 15:39:00,
2013-02-22 09:50:00,51.6,41.4,30.04,NNE,14,3.0,3.0,68,0.00,,,0.00,Wunderground v.1.15,2013-02-22 15:50:00,
2013-02-22 09:59:00,52.0,41.0,30.03,East,100,3.0,8.0,66,0.00,,,0.00,Wunderground v.1.15,2013-02-22 15:59:00,
2013-02-22 10:05:00,52.0,41.0,30.03,NNE,20,3.0,8.0,66,0.00,,,0.00,Wunderground v.1.15,2013-02-22 16:05:00,
2013-02-22 10:14:00,53.1,41.6,30.03,NNE,31,3.0,8.0,65,0.00,,,0.00,Wunderground v.1.15,2013-02-22 16:14:00,
2013-02-22 10:25:00,53.5,40.8,30.03,NNE,30,4.0,6.0,62,0.00,,,0.00,Wunderground v.1.15,2013-02-22 16:25:00,
2013-02-22 10:34:00,54.0,41.7,30.02,WNW,295,4.0,4.0,63,0.00,,,0.00,Wunderground v.1.15,2013-02-22 16:34:00,
2013-02-22 10:40:00,54.6,41.4,30.02,NE,55,3.0,3.0,61,0.00,,,0.00,Wunderground v.1.15,2013-02-22 16:40:00,
2013-02-22 10:49:00,54.5,40.9,30.03,East,83,4.0,4.0,60,0.00,,,0.00,Wunderground v.1.15,2013-02-22 16:49:00,
2013-02-22 11:00:00,54.4,40.4,30.03,NNW,335,3.0,3.0,59,0.00,,,0.00,Wunderground v.1.15,2013-02-22 17:00:00,
2013-02-22 11:09:00,54.9,40.8,30.03,NNW,345,4.0,4.0,59,0.00,,,0.00,Wunderground v.1.15,2013-02-22 17:09:00,
2013-02-22 11:15:00,55.0,40.0,30.03,NE,44,4.0,8.0,57,0.00,,,0.00,Wunderground v.1.15,2013-02-22 17:15:00,
2013-02-22 11:24:00,54.6,39.7,30.02,ENE,57,4.0,4.0,57,0.00,,,0.00,Wunderground v.1.15,2013-02-22 17:24:00,
2013-02-22 11:30:00,54.5,40.0,30.02,ENE,72,3.0,3.0,58,0.00,,,0.00,Wunderground v.1.15,2013-02-22 17:30:00,
2013-02-22 11:39:00,55.4,40.4,30.03,NNW,344,3.0,3.0,57,0.00,,,0.00,Wunderground v.1.15,2013-02-22 17:39:00,
2013-02-22 11:45:00,55.6,40.1,30.02,NNE,26,3.0,3.0,56,0.00,,,0.00,Wunderground v.1.15,2013-02-22 17:45:00,
2013-02-22 11:54:00,56.1,40.6,30.02,North,6,3.0,6.0,56,0.00,,,0.00,Wunderground v.1.15,2013-02-22 17:54:00,
2013-02-22 12:05:00,57.0,41.0,30.02,NNW,335,3.0,3.0,55,0.00,,,0.00,Wunderground v.1.15,2013-02-22 18:05:00,
2013-02-22 12:14:00,58.5,41.4,30.01,North,10,3.0,3.0,53,0.00,,,0.00,Wunderground v.1.15,2013-02-22 18:14:00,
2013-02-22 12:25:00,59.0,40.9,30.01,NNE,30,3.0,5.0,51,0.00,,,0.00,Wunderground v.1.15,2013-02-22 18:25:00,
2013-02-22 12:34:00,59.9,41.2,30.00,NE,34,3.0,5.0,50,0.00,,,0.00,Wunderground v.1.15,2013-02-22 18:34:00,
2013-02-22 12:40:00,59.6,40.9,30.00,NW,311,3.0,3.0,50,0.00,,,0.00,Wunderground v.1.15,2013-02-22 18:40:00,
2013-02-22 12:49:00,59.9,41.2,30.00,NE,34,4.0,4.0,50,0.00,,,0.00,Wunderground v.1.15,2013-02-22 18:49:00,
2013-02-22 12:55:00,60.7,41.4,30.00,ENE,65,3.0,4.0,49,0.00,,,0.00,Wunderground v.1.15,2013-02-22 18:55:00,
2013-02-22 13:04:00,61.8,41.3,29.99,NW,317,2.0,3.0,47,0.00,,,0.00,Wunderground v.1.15,2013-02-22 19:04:00,
2013-02-22 13:15:00,62.6,39.8,29.98,East,87,3.0,4.0,43,0.00,,,0.00,Wunderground v.1.15,2013-02-22 19:15:00,
2013-02-22 13:25:00,62.4,40.8,29.98,ESE,114,2.0,6.0,45,0.00,,,0.00,Wunderground v.1.15,2013-02-22 19:25:00,
2013-02-22 13:34:00,62.9,39.4,29.97,NNE,30,2.0,2.0,42,0.00,,,0.00,Wunderground v.1.15,2013-02-22 19:34:00,
2013-02-22 13:45:00,63.7,40.8,29.97,East,92,2.0,3.0,43,0.00,,,0.00,Wunderground v.1.15,2013-02-22 19:45:00,
2013-02-22 13:54:00,64.1,41.1,29.97,East,98,2.0,2.0,43,0.00,,,0.00,Wunderground v.1.15,2013-02-22 19:54:00,
2013-02-22 14:05:00,64.5,40.3,29.96,NNE,27,3.0,4.0,41,0.00,,,0.00,Wunderground v.1.15,2013-02-22 20:05:00,
2013-02-22 14:15:00,64.6,41.0,29.95,NNE,12,3.0,6.0,42,0.00,,,0.00,Wunderground v.1.15,2013-02-22 20:15:00,
2013-02-22 14:24:00,64.6,40.4,29.94,NNW,329,3.0,3.0,41,0.00,,,0.00,Wunderground v.1.15,2013-02-22 20:24:00,
2013-02-22 14:35:00,65.3,39.7,29.95,NE,49,3.0,3.0,39,0.00,,,0.00,Wunderground v.1.15,2013-02-22 20:35:00,
2013-02-22 14:44:00,65.4,39.1,29.95,NE,49,3.0,4.0,38,0.00,,,0.00,Wunderground v.1.15,2013-02-22 20:44:00,
2013-02-22 14:55:00,66.1,40.4,29.94,East,96,2.0,4.0,39,0.00,,,0.00,Wunderground v.1.15,2013-02-22 20:55:00,
2013-02-22 15:04:00,66.4,39.3,29.94,ENE,70,2.0,5.0,37,0.00,,,0.00,Wunderground v.1.15,2013-02-22 21:04:00,
2013-02-22 15:10:00,66.4,39.3,29.94,NE,46,2.0,6.0,37,0.00,,,0.00,Wunderground v.1.15,2013-02-22 21:10:00,
2013-02-22 15:19:00,65.8,39.5,29.93,East,91,3.0,3.0,38,0.00,,,0.00,Wunderground v.1.15,2013-02-22 21:19:00,
2013-02-22 15:25:00,66.2,38.4,29.93,ESE,108,2.0,3.0,36,0.00,,,0.00,Wunderground v.1.15,2013-02-22 21:25:00,
2013-02-22 15:34:00,66.0,39.0,29.93,ENE,68,2.0,3.0,37,0.00,,,0.00,Wunderground v.1.15,2013-02-22 21:34:00,
2013-02-22 15:45:00,66.8,38.3,29.92,ESE,112,2.0,2.0,35,0.00,,,0.00,Wunderground v.1.15,2013-02-22 21:45:00,
2013-02-22 15:54:00,66.0,36.8,29.92,SSW,204,2.0,2.0,34,0.00,,,0.00,Wunderground v.1.15,2013-02-22 21:54:00,
2013-02-22 16:05:00,65.2,37.6,29.92,East,80,2.0,2.0,36,0.00,,,0.00,Wunderground v.1.15,2013-02-22 22:05:00,
2013-02-22 16:14:00,65.0,37.4,29.92,East,86,2.0,2.0,36,0.00,,,0.00,Wunderground v.1.15,2013-02-22 22:14:00,
2013-02-22 16:20:00,64.9,37.3,29.93,WNW,297,2.0,2.0,36,0.00,,,0.00,Wunderground v.1.15,2013-02-22 22:20:00,
2013-02-22 16:29:00,64.8,37.2,29.93,ENE,72,2.0,2.0,36,0.00,,,0.00,Wunderground v.1.15,2013-02-22 22:29:00,
2013-02-22 16:35:00,64.5,36.9,29.93,ENE,74,2.0,2.0,36,0.00,,,0.00,Wunderground v.1.15,2013-02-22 22:35:00,
2013-02-22 16:44:00,64.4,37.5,29.93,ENE,59,2.0,5.0,37,0.00,,,0.00,Wunderground v.1.15,2013-02-22 22:44:00,
2013-02-22 16:50:00,64.3,36.8,29.93,ENE,75,3.0,3.0,36,0.00,,,0.00,Wunderground v.1.15,2013-02-22 22:50:00,
2013-02-22 16:59:00,64.1,37.3,29.93,East,82,2.0,2.0,37,0.00,,,0.00,Wunderground v.1.15,2013-02-22 22:59:00,
2013-02-22 17:10:00,63.9,37.1,29.93,East,79,2.0,2.0,37,0.00,,,0.00,Wunderground v.1.15,2013-02-22 23:10:00,
2013-02-22 17:19:00,63.5,37.4,29.93,SE,130,2.0,2.0,38,0.00,,,0.00,Wunderground v.1.15,2013-02-22 23:19:00,
2013-02-22 17:30:00,63.7,36.9,29.93,East,87,1.0,3.0,37,0.00,,,0.00,Wunderground v.1.15,2013-02-22 23:30:00,
2013-02-22 17:39:00,63.2,37.2,29.93,NE,46,2.0,2.0,38,0.00,,,0.00,Wunderground v.1.15,2013-02-22 23:39:00,
2013-02-22 17:45:00,62.9,36.9,29.93,ESE,117,2.0,2.0,38,0.00,,,0.00,Wunderground v.1.15,2013-02-22 23:45:00,
2013-02-22 17:54:00,62.2,36.3,29.94,ENE,72,1.0,1.0,38,0.00,,,0.00,Wunderground v.1.15,2013-02-22 23:54:00,
2013-02-22 18:05:00,61.2,36.7,29.94,East,84,1.0,1.0,40,0.00,,,0.00,Wunderground v.1.15,2013-02-23 00:05:00,
2013-02-22 18:14:00,60.5,36.7,29.95,NE,53,1.0,2.0,41,0.00,,,0.00,Wunderground v.1.15,2013-02-23 00:14:00,
2013-02-22 18:20:00,60.4,36.6,29.95,ESE,103,1.0,1.0,41,0.00,,,0.00,Wunderground v.1.15,2013-02-23 00:20:00,
2013-02-22 18:29:00,60.2,37.0,29.96,ENE,72,1.0,1.0,42,0.00,,,0.00,Wunderground v.1.15,2013-02-23 00:29:00,
2013-02-22 18:35:00,60.1,36.9,29.96,East,95,1.0,1.0,42,0.00,,,0.00,Wunderground v.1.15,2013-02-23 00:35:00,
2013-02-22 18:44:00,59.9,37.3,29.96,East,85,1.0,1.0,43,0.00,,,0.00,Wunderground v.1.15,2013-02-23 00:44:00,
2013-02-22 18:55:00,59.6,37.1,29.97,ENE,65,1.0,2.0,43,0.00,,,0.00,Wunderground v.1.15,2013-02-23 00:55:00,
2013-02-22 19:04:00,59.2,36.7,29.97,NE,44,1.0,2.0,43,0.00,,,0.00,Wunderground v.1.15,2013-02-23 01:04:00,
2013-02-22 19:14:00,58.6,36.7,29.98,ENE,65,1.0,3.0,44,0.00,,,0.00,Wunderground v.1.15,2013-02-23 01:14:00,
2013-02-22 19:25:00,57.9,36.1,29.98,NNW,342,1.0,2.0,44,0.00,,,0.00,Wunderground v.1.15,2013-02-23 01:25:00,
2013-02-22 19:34:00,57.4,36.2,29.99,NE,34,1.0,2.0,45,0.00,,,0.00,Wunderground v.1.15,2013-02-23 01:34:00,
2013-02-22 19:45:00,57.2,36.6,30.00,NE,47,2.0,2.0,46,0.00,,,0.00,Wunderground v.1.15,2013-02-23 01:45:00,
2013-02-22 19:54:00,57.0,36.4,30.00,North,11,2.0,3.0,46,0.00,,,0.00,Wunderground v.1.15,2013-02-23 01:54:00,
2013-02-22 20:05:00,56.6,36.0,30.00,NE,39,2.0,2.0,46,0.00,,,0.00,Wunderground v.1.15,2013-02-23 02:05:00,
2013-02-22 20:14:00,56.5,36.5,30.00,NNE,18,2.0,2.0,47,0.00,,,0.00,Wunderground v.1.15,2013-02-23 02:14:00,
2013-02-22 20:20:00,56.3,36.3,30.00,NE,49,2.0,3.0,47,0.00,,,0.00,Wunderground v.1.15,2013-02-23 02:20:00,
2013-02-22 20:29:00,56.0,36.6,30.01,East,84,1.0,1.0,48,0.00,,,0.00,Wunderground v.1.15,2013-02-23 02:29:00,
2013-02-22 20:35:00,55.8,36.4,30.01,NE,55,1.0,2.0,48,0.00,,,0.00,Wunderground v.1.15,2013-02-23 02:35:00,
2013-02-22 20:44:00,55.5,36.1,30.01,NE,42,2.0,4.0,48,0.00,,,0.00,Wunderground v.1.15,2013-02-23 02:44:00,
2013-02-22 20:50:00,55.4,36.5,30.01,NW,316,2.0,3.0,49,0.00,,,0.00,Wunderground v.1.15,2013-02-23 02:50:00,
2013-02-22 20:59:00,55.2,36.4,30.02,NNE,15,3.0,3.0,49,0.00,,,0.00,Wunderground v.1.15,2013-02-23 02:59:00,
2013-02-22 21:09:00,54.9,36.6,30.02,NNE,29,2.0,4.0,50,0.00,,,0.00,Wunderground v.1.15,2013-02-23 03:09:00,
2013-02-22 21:15:00,54.7,36.9,30.02,NNE,16,2.0,4.0,51,0.00,,,0.00,Wunderground v.1.15,2013-02-23 03:15:00,
2013-02-22 21:24:00,54.4,36.6,30.02,ENE,68,2.0,3.0,51,0.00,,,0.00,Wunderground v.1.15,2013-02-23 03:24:00,
2013-02-22 21:30:00,54.2,36.9,30.03,East,80,2.0,4.0,52,0.00,,,0.00,Wunderground v.1.15,2013-02-23 03:30:00,
2013-02-22 21:39:00,53.9,36.7,30.02,ENE,74,2.0,2.0,52,0.00,,,0.00,Wunderground v.1.15,2013-02-23 03:39:00,
2013-02-22 21:45:00,53.7,37.0,30.03,North,359,2.0,2.0,53,0.00,,,0.00,Wunderground v.1.15,2013-02-23 03:45:00,
2013-02-22 21:54:00,53.3,36.6,30.03,ENE,68,1.0,2.0,53,0.00,,,0.00,Wunderground v.1.15,2013-02-23 03:54:00,
2013-02-22 22:05:00,52.9,36.7,30.04,ENE,77,2.0,3.0,54,0.00,,,0.00,Wunderground v.1.15,2013-02-23 04:05:00,
2013-02-22 22:14:00,52.7,36.5,30.04,ENE,72,2.0,2.0,54,0.00,,,0.00,Wunderground v.1.15,2013-02-23 04:14:00,
2013-02-22 22:25:00,52.3,36.6,30.04,North,8,1.0,3.0,55,0.00,,,0.00,Wunderground v.1.15,2013-02-23 04:25:00,
2013-02-22 22:34:00,51.9,36.7,30.04,NNE,27,1.0,4.0,56,0.00,,,0.00,Wunderground v.1.15,2013-02-23 04:34:00,
2013-02-22 22:40:00,51.8,36.6,30.04,North,1,1.0,3.0,56,0.00,,,0.00,Wunderground v.1.15,2013-02-23 04:40:00,
2013-02-22 22:49:00,51.5,36.3,30.04,NE,47,2.0,2.0,56,0.00,,,0.00,Wunderground v.1.15,2013-02-23 04:49:00,
2013-02-22 23:00:00,51.3,35.7,30.03,NW,321,2.0,2.0,55,0.00,,,0.00,Wunderground v.1.15,2013-02-23 05:00:00,
2013-02-22 23:04:00,51.2,35.6,30.03,SE,136,3.0,3.0,55,0.00,,,0.00,Wunderground v.1.15,2013-02-23 05:04:00,
2013-02-22 23:09:00,51.0,34.9,30.03,NE,44,3.0,3.0,54,0.00,,,0.00,Wunderground v.1.15,2013-02-23 05:09:00,
2013-02-22 23:15:00,50.9,35.3,30.03,NE,44,3.0,3.0,55,0.00,,,0.00,Wunderground v.1.15,2013-02-23 05:15:00,
2013-02-22 23:24:00,50.7,34.6,30.04,East,82,2.0,5.0,54,0.00,,,0.00,Wunderground v.1.15,2013-02-23 05:24:00,
2013-02-22 23:30:00,50.6,34.6,30.04,East,84,3.0,3.0,54,0.00,,,0.00,Wunderground v.1.15,2013-02-23 05:30:00,
2013-02-22 23:34:00,50.4,34.8,30.04,NNE,30,2.0,4.0,55,0.00,,,0.00,Wunderground v.1.15,2013-02-23 05:34:00,
2013-02-22 23:45:00,50.2,34.6,30.03,North,4,2.0,3.0,55,0.00,,,0.00,Wunderground v.1.15,2013-02-23 05:45:00,
2013-02-22 23:54:00,49.8,34.7,30.04,ENE,60,1.0,2.0,56,0.00,,,0.00,Wunderground v.1.15,2013-02-23 05:54:00,